SANT/TUC METAR and TAF weather

Enter ICAO airport designator
Station Type Date Time Source
SANT METAR 2020/09/23 03:00 UTC NOAA

SANT 230300Z 32004KT 5000 FU NSC 15/04 Q1015


Station Type Date Time Source
SANT Decoded METAR 2020/09/23 03:00 UTC NOAA

Tucuman Aerodrome, Argentina (SANT) 26-51S 065-06W 450M
Sep 22, 2020 - 11:00 PM EDT / 2020.09.23 0300 UTC
Wind: from the NW (320 degrees) at 5 MPH (4 KT):0
Visibility: 3 mile(s):0
Weather: smoke
Temperature: 59 F (15 C)
Dew Point: 39 F (4 C)
Relative Humidity: 47%
Pressure (altimeter): 29.97 in. Hg (1015 hPa)
ob: SANT 230300Z 32004KT 5000 FU NSC 15/04 Q1015
cycle: 3

Station Type Date Time Source
SANT TAF 2020/09/23 00:00 UTC NOAA

TAF SANT 222300Z 2300/2324 36005KT 5000 FU NSC TX34/2318Z TN13/2310Z
BECMG 2314/2316 05010KT

Example: see airport list